Time;durP1;ratioP1;P1;durP2;ratioP2;P2;SDS_P1;SDS_P2;PMS_P1;PMS_P2;Temp;Humidity;BMP_temperature;BMP_pressure;BME280_temperature;BME280_humidity;BME280_pressure;Samples;Min_cycle;Max_cycle;Signal;HPM_P1;HPM_P2
2022/12/07 00:00:33;;;;;;;12.13;7.80;;;;;4.10;96134.00;;;;8468383;28;20659;-75
2022/12/07 00:04:36;;;;;;;13.93;8.43;;;;;4.10;96129.00;;;;8468600;28;20268;-75
2022/12/07 00:08:39;;;;;;;14.47;8.07;;;;;4.10;96128.00;;;;8467799;28;20195;-75
2022/12/07 00:12:43;;;;;;;13.67;8.50;;;;;4.10;96129.00;;;;8468720;28;20551;-73
2022/12/07 00:16:46;;;;;;;14.13;8.43;;;;;4.00;96123.00;;;;8466789;28;20242;-73
2022/12/07 00:20:49;;;;;;;13.33;8.23;;;;;4.00;96116.00;;;;8467121;28;20234;-73
2022/12/07 00:24:52;;;;;;;15.90;8.87;;;;;4.00;96116.00;;;;8466920;28;20190;-73
2022/12/07 00:29:31;;;;;;;16.23;9.27;;;;;4.00;96112.00;;;;8467530;28;20199;-73
2022/12/07 00:33:35;;;;;;;27.97;8.80;;;;;4.00;96107.00;;;;8466753;28;20194;-73
2022/12/07 00:37:38;;;;;;;13.13;7.83;;;;;4.00;96120.00;;;;8466996;28;20195;-73
2022/12/07 00:41:41;;;;;;;17.97;9.00;;;;;4.00;96114.00;;;;8466448;28;20201;-73
2022/12/07 00:45:45;;;;;;;15.07;8.33;;;;;4.00;96111.00;;;;8465599;28;20190;-73
2022/12/07 00:49:48;;;;;;;16.33;9.20;;;;;4.00;96113.00;;;;8466103;28;20198;-73
2022/12/07 00:53:52;;;;;;;15.07;9.17;;;;;4.00;96111.00;;;;8466042;28;20198;-73
2022/12/07 00:57:55;;;;;;;14.80;8.63;;;;;4.00;96109.00;;;;8465761;28;20187;-74
2022/12/07 01:02:00;;;;;;;16.63;8.93;;;;;4.00;96112.00;;;;8466396;28;20531;-73
2022/12/07 01:06:03;;;;;;;15.50;9.03;;;;;4.00;96110.00;;;;8466455;28;20555;-73
2022/12/07 01:10:40;;;;;;;14.50;8.43;;;;;4.00;96112.00;;;;8466104;28;20191;-73
2022/12/07 01:14:43;;;;;;;15.53;8.33;;;;;4.00;96113.00;;;;8466234;28;20573;-73
2022/12/07 01:18:49;;;;;;;16.93;8.53;;;;;4.00;96120.00;;;;8464875;28;20221;-74
2022/12/07 01:22:52;;;;;;;16.20;9.60;;;;;3.90;96126.00;;;;8465019;28;20187;-74
2022/12/07 01:26:55;;;;;;;15.17;9.17;;;;;4.00;96127.00;;;;8465844;28;20623;-73
2022/12/07 01:31:00;;;;;;;16.37;9.20;;;;;3.90;96123.00;;;;8464571;28;20198;-73
2022/12/07 01:35:05;;;;;;;13.90;8.50;;;;;3.90;96128.00;;;;8466352;28;20229;-73
2022/12/07 01:39:10;;;;;;;13.53;8.83;;;;;3.90;96125.00;;;;8464721;28;20736;-73
2022/12/07 01:43:44;;;;;;;16.47;9.07;;;;;3.90;96117.00;;;;8465444;28;20217;-73
2022/12/07 01:47:51;;;;;;;16.93;9.80;;;;;3.80;96123.00;;;;8465365;28;20190;-73
2022/12/07 01:52:01;;;;;;;16.03;9.70;;;;;3.80;96129.00;;;;8464615;28;20201;-73
2022/12/07 01:56:05;;;;;;;17.53;9.37;;;;;3.90;96116.00;;;;8469728;28;20515;-73
2022/12/07 02:00:11;;;;;;;14.87;9.23;;;;;3.90;96117.00;;;;8476666;28;20211;-73
2022/12/07 02:04:14;;;;;;;15.70;9.60;;;;;3.90;96120.00;;;;8474744;28;20213;-73
2022/12/07 02:08:19;;;;;;;14.47;8.90;;;;;3.80;96118.00;;;;8476627;28;20553;-73
2022/12/07 02:12:24;;;;;;;16.77;9.50;;;;;3.90;96120.00;;;;8475152;28;20243;-73
2022/12/07 02:16:35;;;;;;;16.00;9.60;;;;;3.90;96117.00;;;;8475388;28;20593;-73
2022/12/07 02:21:07;;;;;;;15.77;9.30;;;;;3.90;96113.00;;;;8476082;28;20229;-73
2022/12/07 02:25:23;;;;;;;13.53;9.27;;;;;3.90;96112.00;;;;8473909;28;20589;-73
2022/12/07 02:29:31;;;;;;;17.67;8.83;;;;;3.80;96114.00;;;;8476571;28;20190;-73
2022/12/07 02:34:01;;;;;;;15.60;9.07;;;;;3.70;96106.00;;;;8475500;28;20195;-74
2022/12/07 02:38:12;;;;;;;18.40;8.87;;;;;3.70;96106.00;;;;8476198;28;20225;-74
2022/12/07 02:42:23;;;;;;;13.43;8.73;;;;;3.60;96111.00;;;;8475976;28;20191;-75
2022/12/07 02:46:37;;;;;;;16.97;9.57;;;;;3.60;96111.00;;;;8474247;28;20209;-76
2022/12/07 02:50:40;;;;;;;18.03;9.20;;;;;3.60;96109.00;;;;8475601;28;20206;-76
2022/12/07 02:54:43;;;;;;;15.40;9.40;;;;;3.60;96112.00;;;;8475104;28;20223;-76
2022/12/07 02:58:59;;;;;;;14.47;8.87;;;;;3.60;96109.00;;;;8475089;28;20226;-75
2022/12/07 03:03:10;;;;;;;13.77;8.67;;;;;3.60;96100.00;;;;8473944;22;20235;-75
2022/12/07 03:07:26;;;;;;;14.00;8.53;;;;;3.50;96108.00;;;;8442587;28;20679;-75
2022/12/07 03:11:36;;;;;;;19.23;10.03;;;;;3.50;96103.00;;;;8429747;28;20209;-75
2022/12/07 03:15:47;;;;;;;18.07;10.47;;;;;3.50;96093.00;;;;8433309;28;20195;-76
2022/12/07 03:19:56;;;;;;;16.57;9.53;;;;;3.50;96094.00;;;;8421170;28;20354;-75
2022/12/07 03:24:03;;;;;;;19.93;9.67;;;;;3.50;96090.00;;;;8422379;28;20829;-75
2022/12/07 03:28:08;;;;;;;22.13;11.80;;;;;3.60;96098.00;;;;8414214;28;20292;-75
2022/12/07 03:32:17;;;;;;;15.97;9.33;;;;;3.60;96091.00;;;;8412105;28;20563;-75
2022/12/07 03:36:27;;;;;;;16.67;9.40;;;;;3.60;96081.00;;;;8400059;28;20304;-75
2022/12/07 03:40:38;;;;;;;18.50;9.53;;;;;3.70;96070.00;;;;8412430;28;20227;-75
2022/12/07 03:44:42;;;;;;;20.03;10.77;;;;;3.70;96081.00;;;;8389983;28;20208;-76
2022/12/07 03:48:56;;;;;;;17.20;10.13;;;;;3.70;96084.00;;;;8416608;28;20202;-75
2022/12/07 03:53:06;;;;;;;17.93;9.93;;;;;3.70;96089.00;;;;8420952;28;20461;-75
2022/12/07 03:57:10;;;;;;;19.07;9.70;;;;;3.70;96091.00;;;;8422039;28;20211;-75
2022/12/07 04:01:13;;;;;;;17.70;10.13;;;;;3.70;96092.00;;;;8423195;28;20261;-75
2022/12/07 04:05:16;;;;;;;18.20;9.77;;;;;3.70;96082.00;;;;8434529;28;20575;-75
2022/12/07 04:09:21;;;;;;;19.67;10.77;;;;;3.70;96091.00;;;;8447522;28;20205;-75
2022/12/07 04:13:24;;;;;;;18.77;10.97;;;;;3.60;96092.00;;;;8424075;28;20214;-74
2022/12/07 04:17:27;;;;;;;20.47;10.93;;;;;3.70;96088.00;;;;8431041;28;20255;-75
2022/12/07 04:21:30;;;;;;;19.87;11.20;;;;;3.70;96091.00;;;;8436541;28;20233;-75
2022/12/07 04:25:35;;;;;;;17.13;10.10;;;;;3.70;96089.00;;;;8434005;28;20284;-75
2022/12/07 04:29:38;;;;;;;18.60;9.93;;;;;3.70;96082.00;;;;8450687;28;20560;-75
2022/12/07 04:33:41;;;;;;;20.13;11.23;;;;;3.70;96081.00;;;;8438267;28;20205;-74
2022/12/07 04:37:44;;;;;;;25.90;12.00;;;;;3.80;96078.00;;;;8442829;28;20255;-74
2022/12/07 04:41:49;;;;;;;20.63;11.03;;;;;3.70;96066.00;;;;8442109;28;20227;-74
2022/12/07 04:45:52;;;;;;;21.97;11.93;;;;;3.70;96066.00;;;;8450256;28;20197;-75
2022/12/07 04:49:56;;;;;;;18.57;10.43;;;;;3.60;96061.00;;;;8435699;28;20281;-75
2022/12/07 04:53:59;;;;;;;20.33;11.07;;;;;3.40;96052.00;;;;8445370;28;20211;-76
2022/12/07 04:58:03;;;;;;;22.83;11.57;;;;;3.30;96054.00;;;;8434640;28;20198;-75
2022/12/07 05:02:06;;;;;;;20.80;11.27;;;;;3.10;96043.00;;;;8434783;28;20233;-75
2022/12/07 05:06:10;;;;;;;24.57;12.27;;;;;2.90;96036.00;;;;8436648;28;20194;-75
2022/12/07 05:10:15;;;;;;;24.43;12.37;;;;;2.80;96040.00;;;;8444483;28;20240;-76
2022/12/07 05:14:21;;;;;;;25.10;11.93;;;;;2.70;96038.00;;;;8450582;28;20623;-75
2022/12/07 05:18:24;;;;;;;22.57;11.93;;;;;2.50;96023.00;;;;8443673;28;20206;-75
2022/12/07 05:22:28;;;;;;;24.40;12.33;;;;;2.40;96028.00;;;;8438913;28;20555;-75
2022/12/07 05:26:31;;;;;;;29.43;13.20;;;;;2.40;96020.00;;;;8439951;28;20205;-75
2022/12/07 05:30:36;;;;;;;26.03;12.80;;;;;2.30;96023.00;;;;8441864;28;20913;-75
2022/12/07 05:34:39;;;;;;;26.13;13.03;;;;;2.20;96026.00;;;;8448783;28;20555;-75
2022/12/07 05:38:42;;;;;;;27.03;13.17;;;;;2.20;96029.00;;;;8439734;28;20211;-76
2022/12/07 05:42:45;;;;;;;25.43;12.37;;;;;2.20;96041.00;;;;8433522;28;20220;-75
2022/12/07 05:46:50;;;;;;;26.70;13.30;;;;;2.10;96046.00;;;;8433223;28;20206;-76
2022/12/07 05:50:53;;;;;;;25.53;12.63;;;;;2.10;96050.00;;;;8440798;28;20204;-76
2022/12/07 05:54:57;;;;;;;25.73;12.27;;;;;2.20;96054.00;;;;8431869;28;20564;-76
2022/12/07 06:03:22;;;;;;;29.87;12.33;;;;;2.20;96053.00;;;;8434293;28;20230;-77
2022/12/07 06:07:25;;;;;;;27.60;12.33;;;;;2.20;96067.00;;;;8446482;28;20196;-76
2022/12/07 06:15:49;;;;;;;27.43;13.53;;;;;2.20;96059.00;;;;8436800;28;20198;-76
2022/12/07 06:19:53;;;;;;;27.20;13.60;;;;;2.20;96076.00;;;;8433970;28;20584;-77
2022/12/07 06:23:56;;;;;;;32.90;14.27;;;;;2.20;96057.00;;;;8437964;28;20239;-76
2022/12/07 06:28:00;;;;;;;32.53;15.13;;;;;2.30;96069.00;;;;8432887;28;20193;-76
2022/12/07 06:32:03;;;;;;;31.53;13.50;;;;;2.30;96063.00;;;;8413521;28;20205;-75
2022/12/07 06:36:08;;;;;;;30.17;14.50;;;;;2.30;96061.00;;;;8422158;28;20248;-77
2022/12/07 06:40:12;;;;;;;29.93;13.00;;;;;2.30;96055.00;;;;8438535;28;20225;-76
2022/12/07 06:44:15;;;;;;;29.17;12.93;;;;;2.30;96062.00;;;;8440341;28;20202;-76
2022/12/07 06:48:18;;;;;;;31.27;14.27;;;;;2.40;96068.00;;;;8449785;27;20733;-75
2022/12/07 06:52:23;;;;;;;35.37;13.87;;;;;2.50;96068.00;;;;8443579;28;20640;-77
2022/12/07 06:56:26;;;;;;;33.40;14.17;;;;;2.60;96074.00;;;;8447683;28;20575;-76
2022/12/07 07:00:29;;;;;;;33.47;14.53;;;;;2.60;96072.00;;;;8452827;28;20216;-76
2022/12/07 07:04:32;;;;;;;34.70;14.30;;;;;2.60;96076.00;;;;8442395;28;20233;-76
2022/12/07 07:08:38;;;;;;;34.77;14.10;;;;;2.60;96071.00;;;;8436069;28;20206;-75
2022/12/07 07:12:55;;;;;;;35.40;13.43;;;;;2.60;96065.00;;;;8441414;28;20212;-76
2022/12/07 07:16:59;;;;;;;34.03;15.07;;;;;2.60;96067.00;;;;8448709;28;20197;-76
2022/12/07 07:21:03;;;;;;;35.23;14.23;;;;;2.60;96060.00;;;;8455772;28;20329;-76
2022/12/07 07:25:08;;;;;;;38.67;15.60;;;;;2.60;96063.00;;;;8440435;27;20209;-76
2022/12/07 07:29:11;;;;;;;29.77;13.40;;;;;2.70;96062.00;;;;8442019;27;20577;-76
2022/12/07 07:33:14;;;;;;;37.63;14.50;;;;;2.70;96064.00;;;;8445890;27;20191;-76
2022/12/07 07:37:17;;;;;;;36.37;15.50;;;;;2.70;96052.00;;;;8443390;28;20769;-77
2022/12/07 07:41:25;;;;;;;37.67;15.73;;;;;2.80;96074.00;;;;8448676;27;20232;-76
2022/12/07 07:45:28;;;;;;;32.33;13.40;;;;;2.90;96074.00;;;;8439941;28;20194;-76
2022/12/07 07:49:31;;;;;;;35.00;14.00;;;;;3.00;96075.00;;;;8445031;27;20262;-76
2022/12/07 07:53:35;;;;;;;34.40;13.47;;;;;3.00;96076.00;;;;8461869;27;20611;-75
2022/12/07 07:57:40;;;;;;;32.10;13.50;;;;;3.10;96087.00;;;;8436836;28;20736;-77
2022/12/07 08:01:43;;;;;;;36.03;14.17;;;;;3.10;96090.00;;;;8443125;28;20226;-76
2022/12/07 08:05:46;;;;;;;33.80;14.27;;;;;3.20;96086.00;;;;8459505;27;20234;-76
2022/12/07 08:09:49;;;;;;;28.50;11.80;;;;;3.20;96091.00;;;;8479830;27;20199;-76
2022/12/07 08:13:54;;;;;;;33.27;13.63;;;;;3.30;96084.00;;;;8451026;28;20765;-82
2022/12/07 08:17:57;;;;;;;31.67;13.33;;;;;3.30;96090.00;;;;8429839;28;20721;-76
2022/12/07 08:22:00;;;;;;;31.33;13.67;;;;;3.30;96099.00;;;;8437906;28;20613;-75
2022/12/07 08:26:04;;;;;;;34.07;14.73;;;;;3.30;96103.00;;;;8437958;27;20256;-76
2022/12/07 08:30:10;;;;;;;35.40;14.13;;;;;3.40;96107.00;;;;8424743;28;20194;-76
2022/12/07 08:34:13;;;;;;;35.23;13.67;;;;;3.40;96106.00;;;;8435625;28;20401;-76
2022/12/07 08:38:16;;;;;;;35.50;15.33;;;;;3.40;96104.00;;;;8448650;27;20551;-75
2022/12/07 08:42:21;;;;;;;31.70;14.43;;;;;3.50;96115.00;;;;8467300;27;20222;-76
2022/12/07 08:46:32;;;;;;;30.70;13.47;;;;;3.50;96125.00;;;;8466561;27;20805;-75
2022/12/07 08:50:38;;;;;;;35.77;13.37;;;;;3.60;96121.00;;;;8427998;28;20949;-76
2022/12/07 08:54:50;;;;;;;32.13;14.20;;;;;3.60;96123.00;;;;8439306;28;20191;-76
2022/12/07 08:58:53;;;;;;;32.03;13.67;;;;;3.70;96131.00;;;;8434257;28;20210;-76
2022/12/07 09:02:58;;;;;;;30.83;13.57;;;;;3.70;96132.00;;;;8434688;28;20678;-76
2022/12/07 09:07:01;;;;;;;37.63;15.27;;;;;3.80;96136.00;;;;8431100;28;20201;-76
2022/12/07 09:11:04;;;;;;;27.40;12.43;;;;;3.90;96130.00;;;;8443175;28;20206;-76
2022/12/07 09:15:09;;;;;;;26.80;13.13;;;;;4.00;96134.00;;;;8433475;28;20203;-76
2022/12/07 09:19:13;;;;;;;28.40;12.70;;;;;4.10;96134.00;;;;8435211;28;20743;-76
2022/12/07 09:23:17;;;;;;;26.40;12.20;;;;;4.20;96136.00;;;;8438916;28;20661;-75
2022/12/07 09:27:20;;;;;;;29.47;13.20;;;;;4.20;96138.00;;;;8439706;28;20238;-75
2022/12/07 09:31:23;;;;;;;30.60;12.83;;;;;4.20;96124.00;;;;8433019;28;20631;-75
2022/12/07 09:35:29;;;;;;;31.60;13.77;;;;;4.30;96119.00;;;;8430137;28;20206;-75
2022/12/07 09:39:33;;;;;;;26.23;13.23;;;;;4.30;96118.00;;;;8444300;28;20199;-74
2022/12/07 09:43:40;;;;;;;29.20;12.27;;;;;4.50;96125.00;;;;8436808;28;20295;-73
2022/12/07 09:47:43;;;;;;;27.03;13.00;;;;;4.60;96126.00;;;;8430316;28;20719;-72
2022/12/07 09:51:48;;;;;;;26.93;13.27;;;;;4.70;96122.00;;;;8433830;28;20202;-73
2022/12/07 09:55:51;;;;;;;27.87;13.57;;;;;4.80;96120.00;;;;8438577;27;20648;-72
2022/12/07 09:59:55;;;;;;;28.13;13.23;;;;;4.90;96122.00;;;;8445747;28;20255;-73
2022/12/07 10:04:06;;;;;;;24.83;13.60;;;;;5.00;96119.00;;;;8441697;28;20881;-72
2022/12/07 10:08:12;;;;;;;24.30;12.80;;;;;5.10;96111.00;;;;8439901;28;20194;-72
2022/12/07 10:12:15;;;;;;;26.33;12.30;;;;;5.10;96097.00;;;;8427285;28;20278;-72
2022/12/07 10:16:38;;;;;;;23.17;12.47;;;;;5.10;96093.00;;;;8432368;28;20651;-72
2022/12/07 10:20:42;;;;;;;24.37;12.03;;;;;5.10;96098.00;;;;8432364;28;20678;-72
2022/12/07 10:24:48;;;;;;;22.93;12.07;;;;;5.20;96085.00;;;;8443330;27;20230;-73
2022/12/07 10:28:51;;;;;;;24.13;12.43;;;;;5.30;96086.00;;;;8459969;28;20195;-72
2022/12/07 10:32:54;;;;;;;23.30;11.13;;;;;5.40;96078.00;;;;8471814;28;20209;-73
2022/12/07 10:37:28;;;;;;;26.97;12.73;;;;;5.50;96080.00;;;;8470767;28;20195;-73
2022/12/07 10:41:32;;;;;;;20.63;11.70;;;;;5.60;96082.00;;;;8470853;28;20222;-72
2022/12/07 10:45:45;;;;;;;23.93;11.67;;;;;5.60;96081.00;;;;8470409;28;20202;-73
2022/12/07 10:50:42;;;;;;;21.40;10.97;;;;;5.60;96077.00;;;;8470626;28;20205;-72
2022/12/07 10:54:56;;;;;;;21.43;11.13;;;;;5.70;96069.00;;;;8470185;28;20194;-73
2022/12/07 10:59:18;;;;;;;19.77;10.23;;;;;5.90;96069.00;;;;8470050;28;20589;-72
2022/12/07 11:08:32;;;;;;;17.07;9.87;;;;;5.90;96069.00;;;;8469722;28;20220;-72
2022/12/07 11:12:55;;;;;;;23.10;10.30;;;;;5.90;96060.00;;;;8469135;28;20175;-73
2022/12/07 11:17:37;;;;;;;20.77;10.47;;;;;6.00;96066.00;;;;8466425;28;20190;-73
2022/12/07 11:21:49;;;;;;;17.27;9.50;;;;;6.00;96047.00;;;;8469343;28;20646;-73
2022/12/07 11:26:00;;;;;;;19.03;9.73;;;;;6.10;96043.00;;;;8468502;28;20199;-73
2022/12/07 11:30:13;;;;;;;16.33;8.73;;;;;6.10;96042.00;;;;8469513;28;20199;-73
2022/12/07 11:34:43;;;;;;;14.63;8.17;;;;;6.10;96047.00;;;;8468225;28;20248;-73
2022/12/07 11:38:51;;;;;;;16.83;9.30;;;;;6.00;96044.00;;;;8469791;28;20198;-73
2022/12/07 11:43:25;;;;;;;17.17;9.57;;;;;5.90;96043.00;;;;8469420;28;20209;-73
2022/12/07 11:47:36;;;;;;;17.07;8.70;;;;;5.90;96037.00;;;;8467809;28;20190;-73
2022/12/07 11:52:07;;;;;;;17.30;8.10;;;;;5.90;96040.00;;;;8467356;28;20206;-74
2022/12/07 11:56:13;;;;;;;15.13;8.53;;;;;5.80;96035.00;;;;8470704;28;20216;-73
2022/12/07 12:00:44;;;;;;;14.80;8.30;;;;;5.80;96033.00;;;;8463127;28;20191;-73
2022/12/07 12:05:23;;;;;;;11.20;7.00;;;;;5.70;96028.00;;;;8467815;28;20218;-73
2022/12/07 12:09:32;;;;;;;15.67;8.17;;;;;5.50;96021.00;;;;8466459;28;20198;-73
2022/12/07 12:14:12;;;;;;;15.23;7.87;;;;;5.20;96012.00;;;;8468239;28;20187;-73
2022/12/07 12:18:47;;;;;;;14.80;7.57;;;;;5.10;96017.00;;;;8466814;28;20190;-73
2022/12/07 12:23:13;;;;;;;14.50;7.07;;;;;5.10;96007.00;;;;8467935;28;20232;-73
2022/12/07 12:27:23;;;;;;;16.00;7.53;;;;;5.20;96003.00;;;;8465648;28;20191;-73
2022/12/07 12:31:41;;;;;;;15.10;8.10;;;;;5.20;96007.00;;;;8464734;28;20189;-73
2022/12/07 12:36:20;;;;;;;14.73;7.50;;;;;5.30;96004.00;;;;8466911;28;20186;-79
2022/12/07 12:40:46;;;;;;;13.83;7.47;;;;;5.40;96002.00;;;;8464699;28;20221;-79
2022/12/07 12:45:25;;;;;;;15.13;7.87;;;;;5.50;96006.00;;;;8465696;28;20211;-78
2022/12/07 12:49:44;;;;;;;16.77;7.13;;;;;5.60;96009.00;;;;8465856;28;20220;-78
2022/12/07 12:53:48;;;;;;;15.17;7.83;;;;;5.60;96006.00;;;;8465994;28;20199;-77
2022/12/07 12:58:28;;;;;;;18.37;8.37;;;;;5.70;95997.00;;;;8466193;28;20563;-76
2022/12/07 13:02:33;;;;;;;11.57;6.67;;;;;5.70;95990.00;;;;8466352;28;20825;-77
2022/12/07 13:07:13;;;;;;;14.77;7.47;;;;;5.50;95998.00;;;;8465919;28;20202;-77
2022/12/07 13:11:21;;;;;;;13.23;7.47;;;;;5.50;95991.00;;;;8466399;28;20190;-76
2022/12/07 13:15:36;;;;;;;16.00;8.60;;;;;5.60;95991.00;;;;8466095;28;20539;-76
2022/12/07 13:19:59;;;;;;;13.30;7.47;;;;;5.60;95976.00;;;;8465156;28;20244;-77
2022/12/07 13:24:10;;;;;;;12.30;6.90;;;;;5.60;95989.00;;;;8466272;28;20303;-76
2022/12/07 13:28:17;;;;;;;14.07;7.90;;;;;5.70;95982.00;;;;8465864;28;20259;-77
2022/12/07 13:32:25;;;;;;;13.53;7.40;;;;;5.60;95983.00;;;;8465782;28;20584;-77
2022/12/07 13:36:35;;;;;;;13.83;7.37;;;;;5.70;95981.00;;;;8465561;28;20588;-77
2022/12/07 13:41:06;;;;;;;13.03;7.47;;;;;5.70;95976.00;;;;8464760;28;20193;-77
2022/12/07 13:45:47;;;;;;;14.33;8.10;;;;;5.70;95975.00;;;;8464603;28;20288;-77
2022/12/07 13:49:49;;;;;;;13.87;7.33;;;;;5.70;95982.00;;;;8465517;28;20198;-77
2022/12/07 13:54:00;;;;;;;13.33;7.63;;;;;5.70;95987.00;;;;8463919;28;20205;-75
2022/12/07 13:58:33;;;;;;;13.63;7.27;;;;;5.70;95990.00;;;;8463990;28;20259;-75
2022/12/07 14:02:36;;;;;;;29.10;12.83;;;;;5.70;95976.00;;;;8464462;28;20226;-75
2022/12/07 14:06:51;;;;;;;327.93;190.90;;;;;5.70;95979.00;;;;8464901;28;20250;-75
2022/12/07 14:11:30;;;;;;;26.80;14.80;;;;;5.70;95984.00;;;;8462594;28;20190;-75
2022/12/07 14:15:35;;;;;;;176.17;72.90;;;;;5.70;95980.00;;;;8465259;28;20202;-76
2022/12/07 14:20:24;;;;;;;55.50;24.57;;;;;5.60;95971.00;;;;8463966;28;20242;-79
2022/12/07 14:24:27;;;;;;;265.50;103.33;;;;;5.60;95964.00;;;;8463703;28;20226;-78
2022/12/07 14:29:04;;;;;;;24.70;14.33;;;;;5.60;95971.00;;;;8464036;28;20570;-77
2022/12/07 14:33:10;;;;;;;18.33;11.20;;;;;5.50;95971.00;;;;8464739;28;20525;-78
2022/12/07 14:37:41;;;;;;;21.80;12.07;;;;;5.50;95978.00;;;;8463498;28;20182;-76
2022/12/07 14:41:53;;;;;;;13.87;9.47;;;;;5.50;95978.00;;;;8464876;28;20715;-79
2022/12/07 14:45:56;;;;;;;18.47;11.57;;;;;5.50;95980.00;;;;8464082;28;20221;-76
2022/12/07 14:50:37;;;;;;;11.90;6.47;;;;;5.30;95971.00;;;;8463872;28;20240;-76
2022/12/07 14:54:42;;;;;;;21.33;14.87;;;;;5.30;95965.00;;;;8463786;28;20509;-76
2022/12/07 14:58:47;;;;;;;12.70;8.47;;;;;5.30;95962.00;;;;8463659;28;20509;-75
2022/12/07 15:03:21;;;;;;;11.67;8.43;;;;;5.30;95962.00;;;;8464032;28;20282;-76
2022/12/07 15:07:26;;;;;;;9.53;6.40;;;;;5.30;95958.00;;;;8470944;28;20213;-75
2022/12/07 15:12:00;;;;;;;11.93;6.47;;;;;5.20;95956.00;;;;8469166;28;20223;-74
2022/12/07 15:16:03;;;;;;;9.53;6.47;;;;;5.20;95958.00;;;;8469256;28;20191;-74
2022/12/07 15:20:09;;;;;;;9.40;6.20;;;;;5.20;95953.00;;;;8469931;28;20667;-74
2022/12/07 15:24:13;;;;;;;10.10;6.03;;;;;5.20;95948.00;;;;8469505;28;20272;-74
2022/12/07 15:28:17;;;;;;;10.63;6.90;;;;;5.20;95959.00;;;;8469154;28;20206;-74
2022/12/07 15:32:20;;;;;;;14.50;7.10;;;;;5.10;95956.00;;;;8469182;28;20198;-74
2022/12/07 15:36:54;;;;;;;12.97;7.13;;;;;5.10;95963.00;;;;8468549;28;20294;-75
2022/12/07 15:40:58;;;;;;;11.13;6.50;;;;;5.10;95964.00;;;;8467211;28;20190;-75
2022/12/07 15:45:05;;;;;;;21.20;14.97;;;;;5.00;95955.00;;;;8467688;28;20690;-76
2022/12/07 15:49:36;;;;;;;16.37;7.80;;;;;4.90;95955.00;;;;8467418;28;20199;-75
2022/12/07 15:53:40;;;;;;;14.10;7.70;;;;;4.90;95954.00;;;;8468667;28;20217;-75
2022/12/07 15:57:44;;;;;;;15.47;8.13;;;;;4.90;95955.00;;;;8468794;28;20198;-75
2022/12/07 16:02:18;;;;;;;14.03;7.93;;;;;4.80;95947.00;;;;8468090;28;20214;-75
2022/12/07 16:06:21;;;;;;;14.00;7.37;;;;;4.80;95942.00;;;;8468492;28;20222;-75
2022/12/07 16:10:24;;;;;;;18.97;8.17;;;;;4.80;95952.00;;;;8467617;28;20198;-76
2022/12/07 16:14:28;;;;;;;12.60;7.73;;;;;4.80;95952.00;;;;8467834;28;20209;-75
2022/12/07 16:18:31;;;;;;;12.80;7.47;;;;;4.80;95948.00;;;;8467681;28;20191;-76
2022/12/07 16:22:34;;;;;;;13.63;7.80;;;;;4.60;95937.00;;;;8468510;28;20191;-78
2022/12/07 16:26:37;;;;;;;12.87;7.17;;;;;4.50;95953.00;;;;8467095;28;20223;-79
2022/12/07 16:30:42;;;;;;;11.63;6.87;;;;;4.40;95945.00;;;;8466470;28;20250;-79
2022/12/07 16:34:45;;;;;;;11.90;6.93;;;;;4.30;95941.00;;;;8467703;28;20194;-80
2022/12/07 16:38:48;;;;;;;16.40;7.87;;;;;4.20;95934.00;;;;8467436;28;20194;-81
2022/12/07 16:42:54;;;;;;;16.07;7.43;;;;;4.20;95933.00;;;;8467384;28;20190;-80
2022/12/07 16:47:00;;;;;;;15.97;7.13;;;;;4.20;95933.00;;;;8465984;28;20290;-81
2022/12/07 16:51:36;;;;;;;14.13;7.53;;;;;4.10;95931.00;;;;8466907;28;20285;-81
2022/12/07 16:55:40;;;;;;;14.30;7.90;;;;;4.20;95939.00;;;;8464081;28;20198;-81
2022/12/07 16:59:43;;;;;;;18.80;8.07;;;;;4.20;95930.00;;;;8465838;28;20193;-80
2022/12/07 17:04:22;;;;;;;12.33;7.80;;;;;4.10;95931.00;;;;8464992;28;20248;-80
2022/12/07 17:08:55;;;;;;;16.73;8.33;;;;;4.20;95930.00;;;;8466900;28;20210;-74
2022/12/07 17:12:59;;;;;;;14.90;7.93;;;;;4.10;95927.00;;;;8465118;28;20242;-74
2022/12/07 17:17:36;;;;;;;16.07;8.50;;;;;4.20;95928.00;;;;8466620;28;20228;-74
2022/12/07 17:21:41;;;;;;;16.80;8.80;;;;;4.20;95925.00;;;;8464364;28;20197;-73
2022/12/07 17:26:16;;;;;;;118.10;41.50;;;;;4.20;95921.00;;;;8459877;28;20682;-77
2022/12/07 17:30:50;;;;;;;61.67;30.43;;;;;4.10;95927.00;;;;8464755;28;20191;-77
2022/12/07 17:34:53;;;;;;;22.67;12.20;;;;;4.10;95916.00;;;;8464926;28;20205;-77
2022/12/07 17:38:58;;;;;;;107.43;49.20;;;;;4.10;95918.00;;;;8466062;28;20691;-77
2022/12/07 17:43:31;;;;;;;157.10;61.20;;;;;4.10;95916.00;;;;8465082;28;20239;-73
2022/12/07 17:47:35;;;;;;;201.07;68.07;;;;;4.20;95918.00;;;;8465179;28;20187;-73
2022/12/07 17:56:34;;;;;;;726.40;294.77;;;;;4.10;95918.00;;;;8464726;28;20539;-76
2022/12/07 18:01:09;;;;;;;287.87;98.33;;;;;4.10;95918.00;;;;8464639;28;20252;-77
2022/12/07 18:05:47;;;;;;;375.83;140.20;;;;;4.10;95916.00;;;;8464789;28;20661;-77
2022/12/07 18:10:21;;;;;;;297.63;115.37;;;;;4.10;95908.00;;;;8464603;28;20684;-77
2022/12/07 18:15:00;;;;;;;47.43;25.67;;;;;4.10;95906.00;;;;8465325;28;20198;-77
2022/12/07 18:19:35;;;;;;;30.40;17.30;;;;;4.10;95911.00;;;;8463782;28;20194;-77
2022/12/07 18:24:10;;;;;;;24.13;14.47;;;;;4.10;95912.00;;;;8464102;28;20193;-77
2022/12/07 18:28:45;;;;;;;18.07;10.97;;;;;4.20;95903.00;;;;8463632;28;20251;-77
2022/12/07 18:33:19;;;;;;;25.20;13.27;;;;;4.20;95910.00;;;;8464848;28;20547;-77
2022/12/07 18:37:26;;;;;;;21.70;13.43;;;;;4.20;95900.00;;;;8463471;28;20201;-77
2022/12/07 18:41:29;;;;;;;20.17;10.20;;;;;4.30;95916.00;;;;8470662;28;20195;-76
2022/12/07 18:45:35;;;;;;;19.83;10.50;;;;;4.30;95919.00;;;;8470649;28;20221;-75
2022/12/07 18:50:09;;;;;;;20.07;11.27;;;;;4.20;95924.00;;;;8470886;28;20673;-76
2022/12/07 18:54:48;;;;;;;28.97;18.10;;;;;4.20;95922.00;;;;8470702;28;20271;-74
2022/12/07 19:03:30;;;;;;;25.40;13.37;;;;;4.10;95918.00;;;;8469671;28;20213;-76
2022/12/07 19:08:03;;;;;;;30.70;14.27;;;;;4.00;95915.00;;;;8460910;28;20728;-76
2022/12/07 19:12:11;;;;;;;27.97;13.67;;;;;4.10;95911.00;;;;8467960;28;20259;-76
2022/12/07 19:16:14;;;;;;;23.03;12.90;;;;;4.00;95911.00;;;;8466430;28;20186;-76
2022/12/07 19:20:18;;;;;;;27.90;12.97;;;;;4.00;95899.00;;;;8469311;28;20517;-76
2022/12/07 19:24:21;;;;;;;27.00;11.83;;;;;4.00;95900.00;;;;8468926;28;20232;-76
2022/12/07 19:29:01;;;;;;;27.40;11.70;;;;;4.00;95900.00;;;;8469930;28;20270;-76
2022/12/07 19:33:04;;;;;;;24.13;11.43;;;;;4.00;95907.00;;;;8468817;28;20195;-74
2022/12/07 19:37:08;;;;;;;25.70;11.70;;;;;4.00;95907.00;;;;8469409;28;20528;-74
2022/12/07 19:45:47;;;;;;;25.37;12.90;;;;;4.00;95907.00;;;;8467583;28;20229;-74
2022/12/07 19:49:50;;;;;;;22.97;11.73;;;;;4.00;95901.00;;;;8467831;28;20228;-74
2022/12/07 19:54:28;;;;;;;25.70;11.43;;;;;3.90;95899.00;;;;8467037;28;20555;-75
2022/12/07 19:59:02;;;;;;;24.40;11.50;;;;;3.90;95896.00;;;;8468680;28;20209;-76
2022/12/07 20:03:39;;;;;;;26.43;12.87;;;;;3.90;95891.00;;;;8468870;28;20609;-74
2022/12/07 20:08:17;;;;;;;24.30;12.37;;;;;3.90;95887.00;;;;8468340;28;20272;-75
2022/12/07 20:17:19;;;;;;;26.03;13.30;;;;;3.80;95882.00;;;;8467244;28;20255;-76
2022/12/07 20:21:22;;;;;;;26.20;12.80;;;;;3.80;95873.00;;;;8467903;28;20277;-76
2022/12/07 20:26:03;;;;;;;26.67;12.27;;;;;3.80;95870.00;;;;8467006;28;20263;-75
2022/12/07 20:30:08;;;;;;;31.77;14.00;;;;;3.80;95874.00;;;;8466308;28;20190;-76
2022/12/07 20:34:43;;;;;;;28.83;14.27;;;;;3.80;95865.00;;;;8468481;28;20210;-76
2022/12/07 20:39:22;;;;;;;29.13;13.27;;;;;3.70;95864.00;;;;8466523;28;20454;-75
2022/12/07 20:43:27;;;;;;;28.47;13.60;;;;;3.70;95870.00;;;;8467398;28;20188;-76
2022/12/07 20:48:01;;;;;;;25.83;12.00;;;;;3.70;95862.00;;;;8466619;28;20229;-76
2022/12/07 20:52:37;;;;;;;28.20;12.50;;;;;3.70;95869.00;;;;8466791;28;20194;-76
2022/12/07 20:56:41;;;;;;;23.90;11.30;;;;;3.70;95862.00;;;;8466017;28;20240;-76
2022/12/07 21:00:46;;;;;;;30.37;13.83;;;;;3.70;95868.00;;;;8464769;28;20198;-75
2022/12/07 21:05:19;;;;;;;27.77;12.87;;;;;3.60;95858.00;;;;8465616;28;20217;-75
2022/12/07 21:09:25;;;;;;;26.23;12.87;;;;;3.50;95853.00;;;;8465949;28;20288;-75
2022/12/07 21:13:28;;;;;;;33.03;12.83;;;;;3.40;95845.00;;;;8466296;28;20198;-76
2022/12/07 21:17:33;;;;;;;29.53;13.03;;;;;3.30;95837.00;;;;8465838;28;20220;-76
2022/12/07 21:21:36;;;;;;;26.20;12.70;;;;;3.20;95843.00;;;;8464974;28;20190;-75